Time;durP1;ratioP1;P1;durP2;ratioP2;P2;SDS_P1;SDS_P2;PMS_P1;PMS_P2;Temp;Humidity;BMP_temperature;BMP_pressure;BME280_temperature;BME280_humidity;BME280_pressure;Samples;Min_cycle;Max_cycle;Signal;HPM_P1;HPM_P2
2022/12/26 00:01:54;;;;;;;3.25;2.50;;;;;;;6.11;100.00;95807.50;5074845;28;24766;-73
2022/12/26 00:04:22;;;;;;;5.03;2.67;;;;;;;6.10;100.00;95809.25;5074405;28;24457;-73
2022/12/26 00:06:49;;;;;;;2.22;2.03;;;;;;;6.02;100.00;95804.44;5073020;28;24439;-73
2022/12/26 00:09:16;;;;;;;3.67;2.60;;;;;;;6.28;100.00;95811.00;5077822;28;24430;-73
2022/12/26 00:11:43;;;;;;;2.70;2.30;;;;;;;6.24;100.00;95812.03;5080845;28;24432;-73
2022/12/26 00:14:12;;;;;;;2.10;1.80;;;;;;;6.06;100.00;95802.56;5067914;28;24518;-73
2022/12/26 00:16:40;;;;;;;3.05;2.00;;;;;;;5.98;100.00;95813.19;5073804;28;24434;-73
2022/12/26 00:19:08;;;;;;;2.80;2.10;;;;;;;5.79;100.00;95808.00;5069424;28;24525;-72
2022/12/26 00:21:35;;;;;;;2.83;2.17;;;;;;;5.82;100.00;95815.56;5076196;28;24430;-73
2022/12/26 00:24:01;;;;;;;3.30;2.63;;;;;;;5.89;100.00;95813.56;5075074;28;24434;-73
2022/12/26 00:26:30;;;;;;;2.50;2.10;;;;;;;5.88;100.00;95813.63;5081289;28;24523;-72
2022/12/26 00:28:57;;;;;;;3.20;2.80;;;;;;;5.96;100.00;95819.28;5066886;28;24514;-73
2022/12/26 00:31:25;;;;;;;3.38;2.75;;;;;;;6.02;100.00;95808.75;5074713;28;24438;-72
2022/12/26 00:33:52;;;;;;;4.57;2.65;;;;;;;6.08;100.00;95813.59;5083679;28;24440;-73
2022/12/26 00:36:23;;;;;;;3.75;2.80;;;;;;;6.23;100.00;95796.66;5067211;28;24435;-73
2022/12/26 00:38:50;;;;;;;7.38;2.85;;;;;;;6.11;100.00;95807.50;5073398;28;24457;-73
2022/12/26 00:41:17;;;;;;;3.85;1.80;;;;;;;6.13;100.00;95795.44;5085224;28;24433;-73
2022/12/26 00:43:44;;;;;;;3.35;2.47;;;;;;;5.69;100.00;95803.31;5077491;28;24797;-74
2022/12/26 00:46:11;;;;;;;3.72;2.60;;;;;;;5.71;100.00;95804.94;5063725;28;24798;-74
2022/12/26 00:48:37;;;;;;;3.25;2.50;;;;;;;5.68;100.00;95804.22;5059822;28;24506;-74
2022/12/26 00:51:05;;;;;;;3.63;2.65;;;;;;;5.69;100.00;95803.31;5064069;28;24434;-74
2022/12/26 00:53:33;;;;;;;4.77;2.63;;;;;;;5.72;100.00;95803.19;5059906;28;24450;-74
2022/12/26 00:55:59;;;;;;;4.50;3.33;;;;;;;5.72;100.00;95800.63;5057510;28;24502;-74
2022/12/26 00:58:26;;;;;;;4.47;3.63;;;;;;;5.77;100.00;95796.94;5056804;28;24447;-74
2022/12/26 01:00:54;;;;;;;7.45;3.53;;;;;;;5.75;100.00;95803.06;5079293;28;24434;-73
2022/12/26 01:03:21;;;;;;;3.95;3.53;;;;;;;5.81;100.00;95807.91;5070096;28;24805;-73
2022/12/26 01:05:49;;;;;;;6.97;3.50;;;;;;;5.87;100.00;95801.69;5074083;28;24430;-73
2022/12/26 01:08:17;;;;;;;3.78;3.03;;;;;;;6.00;100.00;95801.09;5082201;28;24426;-73
2022/12/26 01:10:46;;;;;;;5.95;3.10;;;;;;;6.04;100.00;95805.22;5084350;28;24434;-73
2022/12/26 01:13:13;;;;;;;3.42;3.00;;;;;;;6.03;100.00;95806.09;5089608;28;24987;-73
2022/12/26 01:15:39;;;;;;;4.20;3.20;;;;;;;6.18;100.00;95806.31;5084609;28;24430;-73
2022/12/26 01:18:06;;;;;;;3.28;2.80;;;;;;;6.15;100.00;95799.56;5084635;28;24822;-74
2022/12/26 01:20:33;;;;;;;6.30;3.60;;;;;;;5.91;100.00;95798.91;5084566;28;24445;-74
2022/12/26 01:22:59;;;;;;;3.15;2.58;;;;;;;5.81;100.00;95793.31;5085833;28;24969;-74
2022/12/26 01:25:26;;;;;;;3.55;2.70;;;;;;;5.76;100.00;95797.84;5088173;28;24457;-73
2022/12/26 01:27:54;;;;;;;4.20;2.58;;;;;;;5.69;100.00;95804.16;5081214;28;24431;-73
2022/12/26 01:30:20;;;;;;;2.60;2.30;;;;;;;5.63;100.00;95803.56;5082073;28;24427;-74
2022/12/26 01:32:46;;;;;;;4.10;2.33;;;;;;;5.56;100.00;95803.84;5085520;28;24433;-74
2022/12/26 01:35:13;;;;;;;3.47;2.40;;;;;;;5.49;100.00;95810.13;5072625;28;24439;-73
2022/12/26 01:37:39;;;;;;;3.03;2.40;;;;;;;5.51;100.00;95804.94;5081678;28;24454;-73
2022/12/26 01:40:07;;;;;;;3.00;2.13;;;;;;;5.39;100.00;95802.88;5069339;28;24439;-73
2022/12/26 01:42:37;;;;;;;3.38;2.67;;;;;;;5.37;100.00;95804.66;5081283;28;24678;-73
2022/12/26 01:45:17;;;;;;;3.28;2.88;;;;;;;5.41;100.00;95803.63;5080447;28;24552;-72
2022/12/26 01:47:49;;;;;;;2.75;2.38;;;;;;;5.55;100.00;95817.56;5078525;28;24438;-73
2022/12/26 01:50:26;;;;;;;3.67;2.50;;;;;;;5.49;100.00;95825.56;5067713;28;24483;-72
2022/12/26 01:52:56;;;;;;;3.03;2.28;;;;;;;5.57;100.00;95812.38;5071623;28;24439;-73
2022/12/26 01:55:23;;;;;;;3.03;2.38;;;;;;;5.45;100.00;95808.59;5075359;28;24438;-73
2022/12/26 01:57:55;;;;;;;5.53;3.08;;;;;;;5.43;100.00;95807.81;5066443;28;24520;-73
2022/12/26 02:00:23;;;;;;;5.25;2.97;;;;;;;5.38;100.00;95817.47;5076160;28;24434;-73
2022/12/26 02:05:33;;;;;;;4.93;2.63;;;;;;;5.44;100.00;95818.91;5069178;28;24446;-73
2022/12/26 02:08:04;;;;;;;4.95;3.00;;;;;;;5.49;100.00;95810.13;5068399;28;24438;-73
2022/12/26 02:10:33;;;;;;;3.13;2.80;;;;;;;5.71;100.00;95810.06;5070243;28;24825;-73
2022/12/26 02:13:00;;;;;;;3.40;2.90;;;;;;;5.77;100.00;95807.22;5084029;28;24430;-73
2022/12/26 02:15:28;;;;;;;3.95;2.58;;;;;;;5.69;100.00;95805.88;5077292;28;24466;-73
2022/12/26 02:17:55;;;;;;;6.45;2.90;;;;;;;5.42;100.00;95803.59;5071381;28;24454;-73
2022/12/26 02:20:24;;;;;;;3.70;2.88;;;;;;;5.58;100.00;95825.16;5060334;28;24439;-73
2022/12/26 02:23:26;;;;;;;7.28;3.05;;;;;;;5.73;100.00;95828.81;5090066;28;24433;-73
2022/12/26 02:26:32;;;;;;;2.90;2.50;;;;;;;5.75;100.00;95827.03;5078080;28;24437;-73
2022/12/26 02:29:27;;;;;;;3.55;2.40;;;;;;;5.70;100.00;95838.38;5071106;28;24434;-73
2022/12/26 02:32:01;;;;;;;3.60;2.92;;;;;;;5.69;100.00;95841.84;5068921;28;25015;-73
2022/12/26 02:34:37;;;;;;;3.10;2.70;;;;;;;5.75;100.00;95836.47;5071754;28;24450;-73
2022/12/26 02:37:20;;;;;;;3.37;2.67;;;;;;;5.80;100.00;95832.78;5069393;28;24501;-72
2022/12/26 02:40:05;;;;;;;3.40;2.50;;;;;;;5.82;100.00;95837.84;5066711;28;24450;-73
2022/12/26 02:42:41;;;;;;;3.15;2.30;;;;;;;5.79;100.00;95843.97;5068659;28;25041;-73
2022/12/26 02:48:12;;;;;;;4.77;2.73;;;;;;;5.58;100.00;95825.16;5063166;28;24414;-73
2022/12/26 03:13:35;;;;;;;2.63;2.20;;;;;;;5.54;100.00;95826.19;5081366;28;24525;-74
2022/12/26 03:18:57;;;;;;;3.80;2.92;;;;;;;5.87;100.00;95815.38;5075650;28;24418;-73
2022/12/26 03:21:28;;;;;;;4.50;2.80;;;;;;;5.96;100.00;95809.00;5081925;28;24438;-73
2022/12/26 03:23:56;;;;;;;2.78;2.25;;;;;;;5.62;100.00;95819.88;5084514;28;20806;-74
2022/12/26 03:26:39;;;;;;;4.43;2.60;;;;;;;5.34;100.00;95818.50;5078437;28;24465;-73
2022/12/26 03:31:53;;;;;;;3.30;2.55;;;;;;;5.36;100.00;95806.41;5067229;28;25175;-73
2022/12/26 03:34:18;;;;;;;3.08;2.50;;;;;;;5.38;100.00;95796.06;5076393;28;24466;-73
2022/12/26 03:37:09;;;;;;;4.10;2.53;;;;;;;5.31;100.00;95801.47;5063161;28;24829;-73
2022/12/26 04:19:43;;;;;;;3.20;2.00;;;;;;;5.20;100.00;95805.38;5077235;28;24438;-73
2022/12/26 04:44:53;;;;;;;2.42;2.17;;;;;;;5.42;100.00;95813.88;4983131;28;24504;-73
2022/12/26 04:47:19;;;;;;;2.40;1.90;;;;;;;5.31;100.00;95818.63;5059610;28;25011;-73
2022/12/26 04:55:11;;;;;;;4.10;2.50;;;;;;;5.10;100.00;95817.75;5076409;28;24517;-73
2022/12/26 04:57:37;;;;;;;2.90;2.20;;;;;;;5.19;100.00;95817.38;5069443;28;24488;-73
2022/12/26 05:00:06;;;;;;;5.25;2.13;;;;;;;5.21;100.00;95818.13;5076864;28;24450;-73
2022/12/26 05:10:45;;;;;;;3.30;2.20;;;;;;;5.42;100.00;95805.31;5074049;28;24468;-73
2022/12/26 05:13:12;;;;;;;3.25;2.53;;;;;;;5.47;100.00;95804.22;5089530;28;24434;-73
2022/12/26 05:29:21;;;;;;;2.80;1.70;;;;;;;5.50;100.00;95818.69;5009377;28;25174;-73
2022/12/26 05:31:48;;;;;;;2.45;1.75;;;;;;;5.44;100.00;95819.75;5082919;28;24437;-73
2022/12/26 05:34:16;;;;;;;1.83;1.70;;;;;;;5.21;100.00;95830.16;5084244;28;24792;-73
2022/12/26 05:36:47;;;;;;;1.90;1.73;;;;;;;5.13;100.00;95843.31;5073789;28;24543;-73
2022/12/26 05:39:13;;;;;;;3.60;2.22;;;;;;;5.17;100.00;95842.28;5075778;28;24455;-73
2022/12/26 05:41:40;;;;;;;2.40;2.00;;;;;;;5.19;100.00;95844.78;5064709;28;24441;-73
2022/12/26 05:44:07;;;;;;;2.63;2.20;;;;;;;5.21;100.00;95848.13;5067224;28;24435;-73
2022/12/26 05:46:34;;;;;;;3.22;2.05;;;;;;;5.30;100.00;95840.03;5066477;28;24436;-73
2022/12/26 05:49:03;;;;;;;2.42;1.80;;;;;;;5.35;100.00;95835.56;5073165;28;24439;-73
2022/12/26 05:51:30;;;;;;;2.95;2.00;;;;;;;5.31;100.00;95847.69;5082940;28;24434;-73
2022/12/26 05:53:56;;;;;;;4.05;1.90;;;;;;;5.40;100.00;95845.63;5068247;28;25077;-73
2022/12/26 05:56:23;;;;;;;2.10;1.88;;;;;;;5.47;100.00;95839.34;5067063;28;24435;-73
2022/12/26 05:58:54;;;;;;;2.40;2.08;;;;;;;5.48;100.00;95829.00;5063130;28;25000;-73
2022/12/26 06:01:21;;;;;;;4.18;2.35;;;;;;;5.54;100.00;95815.06;5082331;28;24446;-73
2022/12/26 06:03:50;;;;;;;2.53;2.00;;;;;;;5.55;100.00;95817.56;5077830;28;24839;-73
2022/12/26 06:06:19;;;;;;;4.13;2.20;;;;;;;5.42;100.00;95811.28;5079843;28;25003;-73
2022/12/26 06:08:48;;;;;;;3.95;2.28;;;;;;;5.32;100.00;95815.97;5064087;28;24437;-73
2022/12/26 06:11:14;;;;;;;2.95;2.40;;;;;;;5.27;100.00;95823.03;5082717;28;24998;-73
2022/12/26 06:13:41;;;;;;;2.70;2.40;;;;;;;5.28;100.00;95816.16;5077832;28;24804;-73
2022/12/26 06:16:10;;;;;;;2.90;2.10;;;;;;;5.33;100.00;95820.19;5080964;28;24492;-73
2022/12/26 06:18:36;;;;;;;2.92;1.98;;;;;;;5.36;100.00;95813.28;5080326;28;25002;-73
2022/12/26 06:21:04;;;;;;;2.42;1.80;;;;;;;5.34;100.00;95809.06;5068842;28;24442;-73
2022/12/26 06:23:32;;;;;;;3.10;1.98;;;;;;;5.21;100.00;95807.03;5084200;28;24446;-73
2022/12/26 06:25:59;;;;;;;4.22;2.60;;;;;;;5.25;100.00;95806.00;5083575;28;24439;-73
2022/12/26 06:28:25;;;;;;;2.60;2.20;;;;;;;5.28;100.00;95801.59;5079506;28;24442;-73
2022/12/26 06:30:52;;;;;;;2.70;2.10;;;;;;;5.28;100.00;95809.28;5077672;28;25038;-73
2022/12/26 06:33:19;;;;;;;5.05;2.13;;;;;;;5.37;100.00;95807.22;5081667;28;24788;-73
2022/12/26 06:35:46;;;;;;;3.40;2.40;;;;;;;5.47;100.00;95805.97;5071351;28;24984;-73
2022/12/26 06:38:13;;;;;;;3.90;2.22;;;;;;;5.51;100.00;95800.63;5071592;28;24470;-73
2022/12/26 06:40:41;;;;;;;3.85;2.33;;;;;;;5.59;100.00;95808.00;5065557;28;24437;-73
2022/12/26 06:43:07;;;;;;;4.07;2.28;;;;;;;5.82;100.00;95807.00;5066395;28;25329;-73
2022/12/26 06:45:34;;;;;;;2.97;2.42;;;;;;;5.71;100.00;95814.34;5068865;28;24442;-73
2022/12/26 06:48:01;;;;;;;3.78;2.25;;;;;;;5.72;100.00;95816.03;5061561;28;24435;-73
2022/12/26 06:50:28;;;;;;;4.10;2.25;;;;;;;5.63;100.00;95814.69;5066670;28;24447;-73
2022/12/26 06:52:54;;;;;;;2.97;2.20;;;;;;;5.62;100.00;95810.44;5069068;28;24462;-73
2022/12/26 06:55:21;;;;;;;2.75;2.08;;;;;;;5.62;100.00;95820.72;5070444;28;24442;-73
2022/12/26 06:57:51;;;;;;;2.88;2.00;;;;;;;5.50;100.00;95822.06;5068824;28;24903;-73
2022/12/26 07:00:18;;;;;;;4.35;2.28;;;;;;;5.56;100.00;95824.41;5072366;28;24457;-73
2022/12/26 07:02:48;;;;;;;4.28;2.15;;;;;;;5.61;100.00;95831.06;5077364;28;24438;-73
2022/12/26 07:05:15;;;;;;;3.80;2.50;;;;;;;5.70;100.00;95817.81;5070262;28;24446;-73
2022/12/26 07:07:41;;;;;;;2.78;2.17;;;;;;;5.76;100.00;95823.53;5077471;28;24548;-73
2022/12/26 07:10:08;;;;;;;4.15;2.42;;;;;;;5.93;100.00;95822.00;5074053;28;24438;-74
2022/12/26 07:12:35;;;;;;;2.88;2.05;;;;;;;6.00;100.00;95815.69;5090863;28;24434;-74
2022/12/26 07:15:03;;;;;;;2.38;2.17;;;;;;;6.07;100.00;95824.81;5087097;28;24437;-73
2022/12/26 07:17:29;;;;;;;2.83;2.30;;;;;;;6.13;100.00;95816.00;5089742;28;24430;-73
2022/12/26 07:19:56;;;;;;;3.73;2.50;;;;;;;6.23;100.00;95835.22;5078220;28;24453;-73
2022/12/26 07:22:22;;;;;;;3.25;2.42;;;;;;;6.26;100.00;95823.06;5075944;28;24427;-73
2022/12/26 07:24:49;;;;;;;3.47;2.28;;;;;;;6.26;100.00;95827.38;5074802;28;24435;-73
2022/12/26 07:27:15;;;;;;;3.88;2.30;;;;;;;6.28;100.00;95823.03;5075022;28;24438;-70
2022/12/26 07:29:42;;;;;;;5.47;2.60;;;;;;;6.29;100.00;95822.94;5077532;28;24830;-72
2022/12/26 07:32:09;;;;;;;5.97;2.28;;;;;;;6.34;100.00;95838.19;5073727;28;24442;-72
2022/12/26 07:34:36;;;;;;;5.80;2.30;;;;;;;6.32;100.00;95839.16;5068605;28;24536;-72
2022/12/26 07:37:02;;;;;;;3.00;2.40;;;;;;;6.36;100.00;95831.22;5071838;28;24438;-73
2022/12/26 07:39:29;;;;;;;3.05;2.35;;;;;;;6.37;100.00;95814.88;5073285;28;24462;-72
2022/12/26 07:41:58;;;;;;;2.60;2.28;;;;;;;6.37;100.00;95821.75;5079182;28;25004;-73
2022/12/26 07:44:25;;;;;;;3.20;2.42;;;;;;;6.38;100.00;95831.13;5072930;28;21136;-72
2022/12/26 07:46:52;;;;;;;2.70;2.13;;;;;;;6.36;100.00;95836.38;5077500;28;24426;-73
2022/12/26 07:49:19;;;;;;;3.88;2.28;;;;;;;6.34;100.00;95839.91;5068158;28;24828;-73
2022/12/26 07:51:46;;;;;;;2.25;2.05;;;;;;;6.35;100.00;95847.56;5071671;28;24427;-73
2022/12/26 07:54:13;;;;;;;4.78;2.33;;;;;;;6.30;100.00;95844.34;5077376;28;24450;-73
2022/12/26 07:56:39;;;;;;;2.95;2.15;;;;;;;6.32;100.00;95836.56;5071552;28;24801;-72
2022/12/26 07:59:06;;;;;;;2.72;2.30;;;;;;;6.27;100.00;95835.06;5074837;28;24446;-73
2022/12/26 08:01:33;;;;;;;3.35;2.22;;;;;;;6.27;100.00;95832.47;5070841;28;24438;-73
2022/12/26 08:03:59;;;;;;;3.20;2.30;;;;;;;6.26;100.00;95832.53;5067723;28;24431;-72
2022/12/26 08:06:27;;;;;;;3.37;2.43;;;;;;;6.27;100.00;95836.78;5074052;28;24457;-72
2022/12/26 08:08:53;;;;;;;5.75;2.65;;;;;;;6.26;100.00;95838.50;5073779;28;24430;-73
2022/12/26 08:11:22;;;;;;;2.20;2.00;;;;;;;6.32;100.00;95831.44;5073215;28;24438;-73
2022/12/26 08:13:48;;;;;;;2.42;2.10;;;;;;;6.33;100.00;95836.50;5075360;28;24442;-72
2022/12/26 08:16:15;;;;;;;2.45;2.00;;;;;;;6.35;100.00;95846.75;5069120;28;24435;-73
2022/12/26 08:18:42;;;;;;;3.63;2.20;;;;;;;6.34;100.00;95843.34;5070960;28;24450;-73
2022/12/26 08:21:09;;;;;;;3.78;2.30;;;;;;;6.34;100.00;95855.34;5071068;28;24431;-72
2022/12/26 08:23:37;;;;;;;5.68;3.92;;;;;;;6.43;100.00;95867.81;5075323;28;24435;-73
2022/12/26 08:26:05;;;;;;;2.75;2.38;;;;;;;6.49;100.00;95870.94;5072905;28;25036;-73
2022/12/26 08:28:32;;;;;;;2.95;2.40;;;;;;;6.52;100.00;95870.78;5072897;28;24520;-72
2022/12/26 08:30:58;;;;;;;3.40;1.90;;;;;;;6.55;100.00;95886.09;5077579;28;24441;-73
2022/12/26 08:33:25;;;;;;;3.40;2.47;;;;;;;6.53;100.00;95897.38;5075483;28;24497;-72
2022/12/26 08:35:52;;;;;;;3.33;2.42;;;;;;;6.53;100.00;95898.19;5079074;28;24446;-72
2022/12/26 08:38:18;;;;;;;5.90;2.50;;;;;;;6.54;100.00;95910.16;5070975;28;24444;-72
2022/12/26 08:40:54;;;;;;;3.35;2.40;;;;;;;6.54;100.00;95914.47;5077676;28;24449;-72
2022/12/26 08:43:21;;;;;;;4.95;2.65;;;;;;;6.57;100.00;95924.63;5079670;28;24439;-73
2022/12/26 08:45:56;;;;;;;4.27;2.87;;;;;;;6.62;100.00;95935.53;5069450;28;24526;-73
2022/12/26 08:48:23;;;;;;;3.60;2.95;;;;;;;6.63;100.00;95934.63;5075363;28;20696;-72
2022/12/26 08:50:55;;;;;;;4.60;2.53;;;;;;;6.69;100.00;95936.94;5071880;28;24438;-73
2022/12/26 08:53:22;;;;;;;2.42;2.13;;;;;;;6.69;100.00;95944.66;5085443;28;24457;-72
2022/12/26 08:55:49;;;;;;;3.67;2.30;;;;;;;6.73;100.00;95940.22;5070993;28;24461;-73
2022/12/26 08:58:16;;;;;;;3.65;2.60;;;;;;;6.81;100.00;95940.69;5076786;28;24793;-73
2022/12/26 09:00:43;;;;;;;2.83;2.13;;;;;;;6.87;100.00;95944.75;5080063;28;24859;-73
2022/12/26 09:03:09;;;;;;;3.20;2.00;;;;;;;6.90;100.00;95940.28;5074781;28;24437;-72
2022/12/26 09:05:36;;;;;;;6.35;2.30;;;;;;;6.85;100.00;95947.38;5082339;28;24429;-72
2022/12/26 09:08:02;;;;;;;4.03;2.40;;;;;;;6.85;100.00;95947.38;5068638;28;24964;-73
2022/12/26 09:10:29;;;;;;;4.28;2.97;;;;;;;7.08;100.00;95945.47;5082888;28;24430;-73
2022/12/26 09:12:56;;;;;;;3.72;3.00;;;;;;;7.05;100.00;95943.91;5075620;28;24705;-73
2022/12/26 09:15:23;;;;;;;3.58;2.90;;;;;;;7.16;100.00;95935.69;5073575;28;20804;-72
2022/12/26 09:17:49;;;;;;;4.03;2.88;;;;;;;7.20;100.00;95934.63;5071782;28;24438;-73
2022/12/26 09:20:16;;;;;;;3.20;2.90;;;;;;;7.29;100.00;95926.47;5069405;28;24438;-71
2022/12/26 09:22:52;;;;;;;4.43;2.80;;;;;;;7.27;100.00;95936.03;5076191;28;25030;-72
2022/12/26 09:25:20;;;;;;;5.80;2.83;;;;;;;7.29;100.00;95947.06;5071320;28;24446;-72
2022/12/26 09:27:48;;;;;;;3.25;2.63;;;;;;;7.30;100.00;95950.47;5070721;28;20806;-73
2022/12/26 09:30:16;;;;;;;3.10;2.50;;;;;;;7.30;100.00;95963.34;5068358;28;24494;-73
2022/12/26 09:32:42;;;;;;;6.18;2.95;;;;;;;7.34;100.00;95982.91;5073307;28;20781;-73
2022/12/26 09:35:09;;;;;;;4.07;3.08;;;;;;;7.33;100.00;96000.13;5081857;28;24445;-73
2022/12/26 09:37:35;;;;;;;5.05;3.10;;;;;;;7.36;100.00;96005.13;5084872;28;24431;-73
2022/12/26 09:40:03;;;;;;;3.97;2.85;;;;;;;7.36;100.00;96018.03;5075625;28;24454;-73
2022/12/26 09:42:35;;;;;;;4.88;3.50;;;;;;;7.39;100.00;96025.63;5076672;28;25038;-72
2022/12/26 09:45:11;;;;;;;7.97;4.67;;;;;;;7.44;100.00;96020.25;5086117;28;21321;-72
2022/12/26 09:47:46;;;;;;;4.40;3.40;;;;;;;7.64;100.00;96024.44;5076823;28;20758;-72
2022/12/26 09:50:19;;;;;;;2.87;2.20;;;;;;;7.88;100.00;96033.63;5076939;28;20806;-72
2022/12/26 09:52:50;;;;;;;2.08;1.30;;;;;;;8.11;100.00;96042.81;5076388;28;20768;-72
2022/12/26 09:55:29;;;;;;;2.10;1.48;;;;;;;8.05;100.00;96047.47;5078307;28;20811;-72
2022/12/26 09:57:59;;;;;;;1.30;1.10;;;;;;;7.95;100.00;96039.31;5078448;28;21613;-72
2022/12/26 10:00:29;;;;;;;1.80;1.10;;;;;;;7.96;100.00;96036.66;5069637;28;20691;-73
2022/12/26 10:02:58;;;;;;;9.60;6.88;;;;;;;8.00;100.00;96032.19;5072829;28;21373;-73
2022/12/26 10:05:30;;;;;;;1.17;0.93;;;;;;;8.11;100.00;96027.34;5076371;28;20781;-73
2022/12/26 10:08:02;;;;;;;1.63;0.60;;;;;;;8.23;100.00;96034.50;5073080;28;20714;-72
2022/12/26 10:10:36;;;;;;;1.17;0.70;;;;;;;8.16;100.00;96042.63;5073171;28;20714;-73
2022/12/26 10:13:10;;;;;;;3.63;0.80;;;;;;;8.13;100.00;96047.91;5076691;28;20782;-73
2022/12/26 10:15:43;;;;;;;1.45;1.05;;;;;;;8.02;100.00;96045.03;5081541;28;20715;-73
2022/12/26 10:18:31;;;;;;;5.47;4.80;;;;;;;7.94;100.00;96055.72;5071442;28;20734;-73
2022/12/26 10:21:19;;;;;;;4.18;3.47;;;;;;;7.82;100.00;96054.53;5067840;28;20696;-73
2022/12/26 10:23:47;;;;;;;5.63;4.30;;;;;;;7.71;100.00;96052.47;5075608;28;20787;-73
2022/12/26 10:26:18;;;;;;;1.33;1.03;;;;;;;7.98;100.00;96045.16;5076177;28;20825;-73
2022/12/26 10:28:49;;;;;;;4.40;2.58;;;;;;;7.84;100.00;96045.00;5074924;28;21196;-70
2022/12/26 10:31:22;;;;;;;17.17;13.43;;;;;;;7.72;100.00;96037.84;5072885;28;21262;-73
2022/12/26 10:33:55;;;;;;;2.30;1.30;;;;;;;7.91;100.00;96041.22;5072444;28;20758;-73
2022/12/26 10:36:29;;;;;;;3.63;2.67;;;;;;;7.94;100.00;96041.06;5073190;28;20710;-73
2022/12/26 10:38:58;;;;;;;5.17;4.10;;;;;;;7.88;100.00;96050.84;5082786;28;20683;-73
2022/12/26 10:41:31;;;;;;;2.85;2.00;;;;;;;7.85;100.00;96056.13;5062339;28;20735;-73
2022/12/26 10:43:57;;;;;;;4.75;3.42;;;;;;;7.80;100.00;96052.94;5070759;28;20718;-73
2022/12/26 10:46:56;;;;;;;3.75;2.75;;;;;;;7.76;100.00;96063.41;5073645;28;24461;-73
2022/12/26 10:49:26;;;;;;;3.90;3.15;;;;;;;7.69;100.00;96059.44;5070219;28;21125;-72
2022/12/26 10:51:55;;;;;;;4.25;3.15;;;;;;;7.63;100.00;96056.31;5072025;28;20720;-73
2022/12/26 10:54:22;;;;;;;3.47;2.60;;;;;;;7.66;100.00;96054.41;5074923;28;20761;-72
2022/12/26 10:56:51;;;;;;;2.00;1.80;;;;;;;7.67;100.00;96042.38;5069476;28;20757;-73
2022/12/26 10:59:20;;;;;;;2.70;2.42;;;;;;;7.63;100.00;96048.56;5074882;28;20810;-72
2022/12/26 11:01:50;;;;;;;2.25;1.77;;;;;;;7.61;100.00;96047.81;5073826;28;24458;-73
2022/12/26 11:04:21;;;;;;;2.85;1.48;;;;;;;7.61;100.00;96045.25;5078729;28;21116;-72
2022/12/26 11:06:51;;;;;;;1.60;1.30;;;;;;;7.61;100.00;96034.94;5074611;28;21420;-72
2022/12/26 11:09:38;;;;;;;1.17;1.08;;;;;;;7.68;100.00;96020.84;5069357;28;20774;-72
2022/12/26 11:12:06;;;;;;;2.37;1.57;;;;;;;7.76;100.00;96009.25;5080503;28;21095;-72
2022/12/26 11:14:36;;;;;;;1.33;0.90;;;;;;;7.75;100.00;96006.78;5086198;28;20804;-73
2022/12/26 11:17:05;;;;;;;1.10;1.00;;;;;;;7.77;100.00;95997.19;5075958;28;20801;-72
2022/12/26 11:19:34;;;;;;;1.35;1.10;;;;;;;7.84;100.00;96006.31;5081586;28;24441;-73
2022/12/26 11:22:24;;;;;;;1.35;1.15;;;;;;;7.81;100.00;96015.94;5067408;28;20774;-72
2022/12/26 11:25:15;;;;;;;1.63;1.20;;;;;;;7.89;100.00;96035.28;5067280;28;20660;-73
2022/12/26 11:27:44;;;;;;;1.10;1.00;;;;;;;7.81;100.00;96034.81;5069757;28;20696;-72
2022/12/26 11:30:21;;;;;;;2.03;1.20;;;;;;;7.74;100.00;96046.31;5083950;28;20751;-72
2022/12/26 11:32:50;;;;;;;1.60;1.10;;;;;;;7.75;100.00;96055.75;5074281;28;20764;-73
2022/12/26 11:35:19;;;;;;;1.43;1.20;;;;;;;7.71;100.00;96062.78;5080955;28;21380;-73
2022/12/26 11:37:53;;;;;;;1.83;1.00;;;;;;;7.64;100.00;96047.66;5072669;28;20732;-73
2022/12/26 11:40:22;;;;;;;0.90;0.75;;;;;;;7.61;100.00;96016.88;5074891;28;24450;-73
2022/12/26 11:42:52;;;;;;;1.20;0.80;;;;;;;7.56;100.00;96011.09;5081237;28;20778;-73
2022/12/26 11:45:22;;;;;;;0.90;0.80;;;;;;;7.59;100.00;96027.25;5080026;28;20798;-74
2022/12/26 11:47:49;;;;;;;1.00;0.90;;;;;;;7.58;100.00;96017.88;5082347;28;20718;-73
2022/12/26 11:50:20;;;;;;;0.98;0.88;;;;;;;7.54;100.00;95997.47;5083494;28;20776;-74
2022/12/26 11:52:52;;;;;;;1.80;0.88;;;;;;;7.50;100.00;95997.59;5080271;28;20683;-73
2022/12/26 11:55:29;;;;;;;0.75;0.70;;;;;;;7.50;100.00;96004.50;5069680;28;24445;-72
2022/12/26 11:57:56;;;;;;;0.85;0.68;;;;;;;7.52;100.00;95997.53;5079536;28;21190;-73
2022/12/26 12:00:24;;;;;;;0.80;0.70;;;;;;;7.62;100.00;96003.09;5079824;28;21248;-73
2022/12/26 12:02:51;;;;;;;1.65;0.98;;;;;;;7.61;100.00;96017.72;5087272;28;24432;-73
2022/12/26 12:05:32;;;;;;;1.80;1.30;;;;;;;7.69;100.00;96015.63;5079699;28;20803;-73
2022/12/26 12:08:29;;;;;;;3.60;2.08;;;;;;;7.66;100.00;96017.50;5072914;28;20689;-73
2022/12/26 12:11:15;;;;;;;1.80;1.00;;;;;;;7.77;100.00;96022.97;5074566;28;20716;-73
2022/12/26 12:13:54;;;;;;;1.42;1.05;;;;;;;7.76;100.00;96011.00;5064694;28;20740;-73
2022/12/26 12:16:34;;;;;;;1.35;1.00;;;;;;;7.80;100.00;96014.28;5065053;28;21118;-73
2022/12/26 12:19:14;;;;;;;2.55;0.70;;;;;;;7.80;100.00;96009.94;5073884;28;20733;-73
2022/12/26 12:21:44;;;;;;;0.80;0.50;;;;;;;7.82;100.00;96002.13;5074918;28;24823;-73
2022/12/26 12:24:36;;;;;;;1.33;1.02;;;;;;;7.85;100.00;95999.41;5075673;28;20747;-73
2022/12/26 12:27:13;;;;;;;1.25;0.88;;;;;;;7.87;100.00;96003.59;5067610;28;20661;-73
2022/12/26 12:30:03;;;;;;;1.23;0.90;;;;;;;7.81;100.00;96001.28;5062218;28;20692;-73
2022/12/26 12:32:42;;;;;;;0.65;0.55;;;;;;;7.85;100.00;95999.41;5063617;28;20730;-73
2022/12/26 12:35:23;;;;;;;0.70;0.55;;;;;;;7.90;100.00;95989.72;5074587;28;21149;-73
2022/12/26 12:38:09;;;;;;;1.10;0.57;;;;;;;8.02;100.00;95983.13;5071555;28;20702;-73
2022/12/26 12:40:46;;;;;;;1.48;0.75;;;;;;;7.98;100.00;95985.00;5070981;28;20804;-73
2022/12/26 12:43:20;;;;;;;1.50;0.90;;;;;;;7.99;100.00;95972.03;5069515;28;20664;-73
2022/12/26 12:45:56;;;;;;;1.10;0.73;;;;;;;8.08;100.00;95982.81;5061029;28;20780;-73
2022/12/26 12:48:40;;;;;;;0.90;0.70;;;;;;;8.10;100.00;95979.25;5064944;28;24457;-73
2022/12/26 12:51:18;;;;;;;1.90;0.70;;;;;;;8.06;100.00;95982.88;5088008;28;24422;-73
2022/12/26 12:54:09;;;;;;;1.20;1.10;;;;;;;8.02;100.00;95973.63;5067127;28;25021;-73
2022/12/26 12:56:44;;;;;;;0.95;0.60;;;;;;;8.17;100.00;95980.59;5071232;28;24442;-74
2022/12/26 12:59:22;;;;;;;2.00;0.60;;;;;;;8.10;100.00;95975.84;5075780;28;24437;-73
2022/12/26 13:01:53;;;;;;;1.25;1.10;;;;;;;8.08;100.00;95983.63;5066818;28;24461;-73
2022/12/26 13:04:26;;;;;;;1.83;0.90;;;;;;;8.17;100.00;95988.34;5073230;28;20743;-73
2022/12/26 13:06:58;;;;;;;1.52;0.90;;;;;;;8.18;100.00;95976.28;5081609;28;24785;-73
2022/12/26 13:09:29;;;;;;;1.70;0.95;;;;;;;8.13;100.00;95983.44;5080891;28;20725;-74
2022/12/26 13:12:01;;;;;;;1.30;1.10;;;;;;;8.08;100.00;95982.81;5077642;28;20810;-73
2022/12/26 13:14:32;;;;;;;4.00;1.20;;;;;;;8.08;100.00;95970.72;5087059;28;20661;-73
2022/12/26 13:17:05;;;;;;;1.40;1.25;;;;;;;8.08;100.00;95960.41;5083919;28;24420;-73
2022/12/26 13:19:39;;;;;;;1.75;1.20;;;;;;;8.10;100.00;95963.75;5079150;28;20775;-73
2022/12/26 13:22:13;;;;;;;3.80;1.33;;;;;;;8.10;100.00;95955.19;5076610;28;20788;-73
2022/12/26 13:24:40;;;;;;;2.28;1.10;;;;;;;8.14;100.00;95954.13;5077349;28;21221;-73
2022/12/26 13:27:24;;;;;;;2.50;0.93;;;;;;;8.12;100.00;95950.78;5080651;28;24793;-73
2022/12/26 13:29:51;;;;;;;1.15;0.75;;;;;;;8.16;100.00;95950.56;5082017;28;20769;-74
2022/12/26 13:32:21;;;;;;;1.13;1.02;;;;;;;8.20;100.00;95956.41;5089808;28;20866;-74
2022/12/26 13:34:49;;;;;;;1.35;1.08;;;;;;;8.17;100.00;95953.97;5074306;28;20731;-73
2022/12/26 13:37:53;;;;;;;0.80;0.60;;;;;;;8.20;100.00;95956.41;5078571;28;24800;-73
2022/12/26 13:40:21;;;;;;;1.30;1.00;;;;;;;8.22;100.00;95939.91;5074718;28;20696;-73
2022/12/26 13:45:58;;;;;;;1.30;0.90;;;;;;;8.23;100.00;95939.03;5084896;28;21078;-73
2022/12/26 13:48:54;;;;;;;2.45;0.85;;;;;;;8.25;100.00;95944.09;5079856;28;24492;-73
2022/12/26 13:51:50;;;;;;;2.13;1.35;;;;;;;8.17;100.00;95939.34;5087431;28;24817;-73
2022/12/26 13:54:18;;;;;;;2.17;1.73;;;;;;;8.20;100.00;95941.75;5082017;28;20655;-74
2022/12/26 13:57:27;;;;;;;2.97;1.37;;;;;;;8.24;100.00;95952.75;5084501;28;20876;-74
2022/12/26 14:00:09;;;;;;;2.83;0.70;;;;;;;8.23;100.00;95941.63;5057935;28;20686;-74